Time;durP1;ratioP1;P1;durP2;ratioP2;P2;SDS_P1;SDS_P2;PMS_P1;PMS_P2;Temp;Humidity;BMP_temperature;BMP_pressure;BME280_temperature;BME280_humidity;BME280_pressure;Samples;Min_cycle;Max_cycle;Signal;HPM_P1;HPM_P2
2024/04/01 00:00:30;;;;;;;10.07;4.53;;;11.20;99.90;;;;;;4996632;28;20724;-76
2024/04/01 00:02:56;;;;;;;14.02;5.15;;;11.20;99.90;;;;;;4996324;28;20049;-77
2024/04/01 00:05:22;;;;;;;14.23;5.50;;;11.30;99.90;;;;;;4997470;28;20037;-76
2024/04/01 00:07:50;;;;;;;15.23;4.20;;;11.20;99.90;;;;;;4996592;28;20065;-76
2024/04/01 00:10:15;;;;;;;13.00;3.75;;;11.20;99.90;;;;;;4995514;28;20392;-77
2024/04/01 00:12:41;;;;;;;10.80;2.85;;;11.20;99.90;;;;;;4997229;28;20528;-77
2024/04/01 00:15:07;;;;;;;9.80;2.42;;;11.30;99.90;;;;;;4997143;28;20049;-77
2024/04/01 00:17:32;;;;;;;17.38;3.08;;;11.40;99.90;;;;;;4996174;28;20038;-78
2024/04/01 00:19:58;;;;;;;9.52;3.13;;;11.40;99.90;;;;;;4997281;28;20496;-77
2024/04/01 00:22:24;;;;;;;12.82;4.18;;;11.40;99.90;;;;;;4996020;28;20116;-77
2024/04/01 00:24:49;;;;;;;11.13;3.95;;;11.30;99.90;;;;;;4996887;28;20042;-77
2024/04/01 00:27:15;;;;;;;141.85;15.98;;;11.30;99.90;;;;;;4997242;28;20720;-77
2024/04/01 00:29:41;;;;;;;72.95;11.38;;;11.30;99.90;;;;;;4995106;28;20038;-77
2024/04/01 00:32:07;;;;;;;6.88;3.47;;;11.20;99.90;;;;;;4996004;28;20045;-77
2024/04/01 00:34:32;;;;;;;12.43;4.57;;;11.20;99.90;;;;;;4997018;28;20120;-77
2024/04/01 00:36:58;;;;;;;12.43;4.88;;;11.20;99.90;;;;;;4995605;28;20030;-77
2024/04/01 00:39:24;;;;;;;6.75;3.78;;;11.20;99.90;;;;;;4995121;28;20203;-77
2024/04/01 00:41:49;;;;;;;7.75;3.78;;;11.20;99.90;;;;;;4996267;28;20034;-77
2024/04/01 00:44:15;;;;;;;9.98;4.20;;;11.20;99.90;;;;;;4996021;28;20408;-77
2024/04/01 00:46:41;;;;;;;15.38;4.60;;;11.30;99.90;;;;;;4997253;28;20626;-77
2024/04/01 00:49:07;;;;;;;13.27;4.15;;;11.20;99.90;;;;;;5000481;28;20065;-77
2024/04/01 00:51:33;;;;;;;8.60;3.78;;;11.20;99.90;;;;;;5000185;28;20065;-77
2024/04/01 00:54:00;;;;;;;9.48;4.25;;;11.20;99.90;;;;;;4999359;28;20042;-78
2024/04/01 00:56:27;;;;;;;12.93;4.38;;;11.20;99.90;;;;;;4999701;28;20069;-78
2024/04/01 00:58:54;;;;;;;5.95;2.92;;;11.20;99.90;;;;;;4998940;28;20499;-77
2024/04/01 01:01:22;;;;;;;12.20;4.10;;;11.10;99.90;;;;;;4999315;28;20037;-77
2024/04/01 01:03:49;;;;;;;9.40;3.60;;;11.20;99.90;;;;;;4999219;28;20029;-77
2024/04/01 01:06:20;;;;;;;15.02;4.55;;;11.10;99.90;;;;;;4998639;28;20038;-77
2024/04/01 01:08:46;;;;;;;8.80;3.92;;;11.10;99.90;;;;;;4998155;28;20413;-78
2024/04/01 01:11:13;;;;;;;7.80;3.45;;;11.10;99.90;;;;;;4999281;28;20034;-77
2024/04/01 01:13:39;;;;;;;9.95;4.72;;;11.10;99.90;;;;;;4999098;28;20470;-77
2024/04/01 01:16:05;;;;;;;10.48;3.55;;;11.20;99.90;;;;;;4998623;28;20037;-77
2024/04/01 01:18:31;;;;;;;11.38;3.33;;;11.10;99.90;;;;;;4999039;28;20038;-78
2024/04/01 01:20:57;;;;;;;15.45;3.53;;;11.00;99.90;;;;;;5000050;28;20040;-77
2024/04/01 01:23:23;;;;;;;45.55;5.47;;;10.90;99.90;;;;;;4999276;28;22266;-77
2024/04/01 01:25:48;;;;;;;62.60;9.23;;;10.90;99.90;;;;;;4998407;28;20065;-77
2024/04/01 01:28:14;;;;;;;28.77;5.18;;;10.90;99.90;;;;;;4999423;28;20157;-77
2024/04/01 01:30:40;;;;;;;71.68;7.93;;;10.90;99.90;;;;;;4997551;28;20048;-77
2024/04/01 01:33:06;;;;;;;6.68;2.97;;;10.90;99.90;;;;;;4998716;28;20045;-77
2024/04/01 01:35:37;;;;;;;4.72;2.53;;;10.80;99.90;;;;;;4998731;28;20022;-77
2024/04/01 01:38:03;;;;;;;6.18;2.53;;;10.90;99.90;;;;;;4997806;28;20045;-77
2024/04/01 01:40:29;;;;;;;7.18;2.15;;;10.80;99.90;;;;;;4998536;28;20073;-77
2024/04/01 01:42:55;;;;;;;6.00;2.28;;;10.90;99.90;;;;;;4999502;28;20124;-77
2024/04/01 01:45:21;;;;;;;8.18;1.85;;;10.80;99.90;;;;;;4998663;28;20077;-77
2024/04/01 01:47:46;;;;;;;6.25;2.05;;;10.80;99.90;;;;;;4998272;28;20558;-77
2024/04/01 01:50:13;;;;;;;8.30;1.95;;;10.70;99.90;;;;;;4999981;28;20050;-78
2024/04/01 01:52:39;;;;;;;6.38;2.05;;;10.70;99.90;;;;;;4998568;28;20370;-78
2024/04/01 01:55:05;;;;;;;7.80;1.80;;;10.70;99.90;;;;;;4999797;28;20168;-77
2024/04/01 01:57:34;;;;;;;7.97;3.03;;;10.70;99.90;;;;;;4997411;28;20030;-77
2024/04/01 02:00:00;;;;;;;8.95;1.70;;;10.70;99.90;;;;;;4997719;28;20038;-78
2024/04/01 02:02:25;;;;;;;5.15;1.60;;;10.70;99.90;;;;;;4998029;28;20061;-77
2024/04/01 02:04:51;;;;;;;4.57;2.00;;;10.70;99.90;;;;;;4998455;28;20629;-77
2024/04/01 02:07:17;;;;;;;6.10;2.05;;;10.70;99.90;;;;;;4996760;28;20064;-77
2024/04/01 02:09:43;;;;;;;4.47;1.73;;;10.60;99.90;;;;;;4998903;28;20070;-78
2024/04/01 02:12:09;;;;;;;7.03;1.50;;;10.70;99.90;;;;;;4999402;28;20511;-78
2024/04/01 02:14:38;;;;;;;4.80;1.30;;;10.70;99.90;;;;;;4998182;28;20160;-78
2024/04/01 02:17:07;;;;;;;4.78;1.38;;;10.60;99.90;;;;;;4997681;28;20045;-78
2024/04/01 02:19:34;;;;;;;7.22;1.55;;;10.60;99.90;;;;;;4998494;28;20049;-77
2024/04/01 02:22:00;;;;;;;3.63;1.67;;;10.60;99.90;;;;;;4997688;28;20033;-77
2024/04/01 02:24:26;;;;;;;4.78;1.33;;;10.70;99.90;;;;;;4997361;28;20040;-77
2024/04/01 02:26:55;;;;;;;3.95;1.40;;;10.70;99.90;;;;;;4998010;28;20049;-77
2024/04/01 02:29:21;;;;;;;3.83;1.50;;;10.60;99.90;;;;;;4997844;28;20523;-77
2024/04/01 02:31:47;;;;;;;4.00;1.40;;;10.60;99.90;;;;;;4998058;28;20041;-77
2024/04/01 02:34:13;;;;;;;2.08;1.13;;;10.70;99.90;;;;;;4998772;28;20038;-77
2024/04/01 02:36:39;;;;;;;3.85;1.38;;;10.70;99.90;;;;;;4997513;28;20041;-77
2024/04/01 02:39:05;;;;;;;2.10;1.00;;;10.50;99.90;;;;;;4997567;28;20727;-77
2024/04/01 02:41:31;;;;;;;2.22;1.15;;;10.60;99.90;;;;;;4998626;28;20034;-78
2024/04/01 02:43:57;;;;;;;4.22;1.15;;;10.50;99.90;;;;;;4998232;28;20036;-78
2024/04/01 02:46:24;;;;;;;6.72;1.40;;;10.60;99.90;;;;;;4995876;28;20579;-77
2024/04/01 02:48:50;;;;;;;15.20;3.22;;;10.60;99.90;;;;;;4998777;28;20033;-77
2024/04/01 02:51:16;;;;;;;29.15;4.88;;;10.60;99.90;;;;;;4997305;28;20464;-77
2024/04/01 02:53:47;;;;;;;53.75;5.90;;;10.50;99.90;;;;;;4997347;28;20636;-77
2024/04/01 02:56:14;;;;;;;3.67;2.25;;;10.60;99.90;;;;;;4996916;28;20038;-78
2024/04/01 02:58:43;;;;;;;3.90;1.33;;;10.50;99.90;;;;;;4998075;28;20064;-77
2024/04/01 03:01:08;;;;;;;10.02;1.52;;;10.50;99.90;;;;;;4995334;28;20104;-78
2024/04/01 03:03:34;;;;;;;2.13;1.10;;;10.60;99.90;;;;;;4993030;28;20049;-78
2024/04/01 03:06:00;;;;;;;3.45;1.45;;;10.50;99.90;;;;;;4991511;28;20042;-77
2024/04/01 03:08:26;;;;;;;3.78;1.40;;;10.50;99.90;;;;;;4991490;28;20061;-78
2024/04/01 03:10:58;;;;;;;2.42;1.17;;;10.50;99.90;;;;;;4992424;28;20092;-77
2024/04/01 03:13:26;;;;;;;3.88;1.50;;;10.50;99.90;;;;;;4993234;28;20517;-78
2024/04/01 03:15:53;;;;;;;3.33;1.35;;;10.50;99.90;;;;;;4992178;28;20044;-78
2024/04/01 03:18:19;;;;;;;2.65;1.20;;;10.50;99.90;;;;;;4989667;28;21301;-79
2024/04/01 03:20:46;;;;;;;2.65;1.27;;;10.50;99.90;;;;;;4991333;28;20029;-78
2024/04/01 03:23:13;;;;;;;2.58;1.08;;;10.60;99.90;;;;;;4990247;28;20524;-78
2024/04/01 03:25:39;;;;;;;3.30;1.45;;;10.50;99.90;;;;;;4989277;28;20042;-78
2024/04/01 03:28:04;;;;;;;14.73;2.55;;;10.50;99.90;;;;;;4990706;28;20045;-78
2024/04/01 03:30:30;;;;;;;3.50;1.55;;;10.50;99.90;;;;;;4990608;28;20096;-77
2024/04/01 03:32:56;;;;;;;2.35;1.23;;;10.50;99.90;;;;;;4989914;28;20096;-78
2024/04/01 03:35:21;;;;;;;39.53;5.47;;;10.50;99.90;;;;;;4991266;28;20496;-78
2024/04/01 03:37:47;;;;;;;1.73;0.98;;;10.50;99.90;;;;;;4990884;28;20040;-78
2024/04/01 03:40:13;;;;;;;8.18;1.65;;;10.40;99.90;;;;;;4989482;28;20615;-77
2024/04/01 03:42:38;;;;;;;3.35;1.73;;;10.40;99.90;;;;;;4990702;28;20036;-77
2024/04/01 03:45:07;;;;;;;4.50;1.58;;;10.30;99.90;;;;;;4989502;28;20594;-78
2024/04/01 03:47:33;;;;;;;2.08;1.17;;;10.40;99.90;;;;;;4990353;28;20486;-78
2024/04/01 03:49:59;;;;;;;2.38;1.25;;;10.30;99.90;;;;;;4992616;28;20380;-78
2024/04/01 03:52:25;;;;;;;3.95;1.42;;;10.30;99.90;;;;;;4992522;28;20069;-78
2024/04/01 03:54:51;;;;;;;70.75;6.32;;;10.40;99.90;;;;;;4992237;28;20350;-78
2024/04/01 03:57:17;;;;;;;110.43;11.77;;;10.40;99.90;;;;;;4992739;28;20057;-77
2024/04/01 03:59:43;;;;;;;32.40;4.43;;;10.20;99.90;;;;;;4989625;28;20053;-78
2024/04/01 04:02:08;;;;;;;15.13;3.40;;;10.30;99.90;;;;;;4989441;28;20095;-77
2024/04/01 04:04:35;;;;;;;22.90;2.88;;;10.20;99.90;;;;;;4989631;28;20037;-78
2024/04/01 04:07:01;;;;;;;23.92;3.40;;;10.30;99.90;;;;;;4988766;28;20113;-78
2024/04/01 04:09:27;;;;;;;7.20;2.38;;;10.20;99.90;;;;;;4987913;28;20114;-78
2024/04/01 04:11:54;;;;;;;3.53;1.50;;;10.20;99.90;;;;;;4989763;28;20095;-77
2024/04/01 04:14:25;;;;;;;2.17;1.35;;;10.30;99.90;;;;;;4988558;28;20175;-77
2024/04/01 04:16:51;;;;;;;16.73;2.08;;;10.30;99.90;;;;;;4989218;28;20037;-77
2024/04/01 04:19:18;;;;;;;6.05;1.67;;;10.30;99.90;;;;;;4989178;28;20108;-77
2024/04/01 04:21:44;;;;;;;13.57;2.30;;;10.40;99.90;;;;;;4992120;28;20133;-77
2024/04/01 04:24:16;;;;;;;4.50;1.90;;;10.50;99.90;;;;;;4992345;28;20033;-78
2024/04/01 04:26:42;;;;;;;2.50;1.13;;;10.40;99.90;;;;;;4992040;28;20515;-78
2024/04/01 04:29:08;;;;;;;2.95;1.15;;;10.40;99.90;;;;;;4992613;28;20038;-78
2024/04/01 04:31:34;;;;;;;7.28;1.98;;;10.50;99.90;;;;;;4993048;28;20507;-77
2024/04/01 04:34:00;;;;;;;9.98;2.22;;;10.90;99.90;;;;;;4993653;28;20045;-78
2024/04/01 04:36:26;;;;;;;9.80;3.08;;;11.20;99.90;;;;;;4992008;28;20145;-78
2024/04/01 04:38:53;;;;;;;5.03;1.30;;;11.60;99.90;;;;;;4992764;28;20096;-77
2024/04/01 04:41:20;;;;;;;4.68;1.10;;;11.50;99.90;;;;;;4993059;28;20031;-77
2024/04/01 04:43:46;;;;;;;14.65;2.83;;;11.40;99.90;;;;;;4993328;28;20058;-77
2024/04/01 04:46:13;;;;;;;9.75;2.15;;;11.40;99.90;;;;;;4992405;28;20050;-78
2024/04/01 04:48:44;;;;;;;6.10;1.30;;;11.50;99.90;;;;;;4993277;28;20034;-78
2024/04/01 04:51:10;;;;;;;2.70;1.10;;;11.60;99.90;;;;;;4991983;28;20038;-78
2024/04/01 04:53:36;;;;;;;15.55;2.42;;;11.10;99.90;;;;;;4992363;28;20071;-78
2024/04/01 04:56:05;;;;;;;8.18;1.60;;;10.70;99.90;;;;;;4992635;28;20041;-77
2024/04/01 04:58:32;;;;;;;7.00;1.52;;;11.20;99.90;;;;;;4991007;28;20132;-78
2024/04/01 05:00:58;;;;;;;12.85;2.25;;;11.50;99.90;;;;;;4990857;28;20045;-77
2024/04/01 05:03:23;;;;;;;12.88;2.40;;;11.80;99.90;;;;;;4992642;28;20034;-78
2024/04/01 05:05:49;;;;;;;16.42;2.53;;;12.00;99.90;;;;;;4992074;28;20150;-77
2024/04/01 05:08:15;;;;;;;10.43;2.40;;;12.20;99.90;;;;;;4991267;28;20041;-77
2024/04/01 05:10:42;;;;;;;12.95;2.67;;;12.20;99.90;;;;;;4992912;28;20465;-77
2024/04/01 05:13:09;;;;;;;7.45;1.73;;;12.30;99.90;;;;;;4991825;28;20049;-77
2024/04/01 05:15:36;;;;;;;11.32;1.75;;;12.30;99.90;;;;;;4991139;28;20037;-78
2024/04/01 05:18:03;;;;;;;8.27;1.88;;;12.20;99.90;;;;;;4991655;28;20034;-77
2024/04/01 05:20:29;;;;;;;7.45;1.58;;;12.20;99.90;;;;;;4992176;28;20160;-78
2024/04/01 05:22:55;;;;;;;13.85;3.75;;;12.20;99.90;;;;;;4990875;28;20068;-78
2024/04/01 05:25:21;;;;;;;7.68;2.85;;;12.30;99.90;;;;;;4992415;28;20928;-78
2024/04/01 05:27:46;;;;;;;13.18;2.58;;;12.30;99.90;;;;;;4992970;28;20117;-77
2024/04/01 05:30:14;;;;;;;5.30;1.75;;;12.30;99.90;;;;;;4991751;28;20034;-78
2024/04/01 05:32:39;;;;;;;14.98;7.25;;;12.20;99.90;;;;;;4990262;28;20030;-78
2024/04/01 05:35:05;;;;;;;9.30;2.75;;;12.20;99.90;;;;;;4991579;28;20060;-77
2024/04/01 05:37:35;;;;;;;17.52;2.92;;;12.20;99.90;;;;;;4990105;28;22698;-78
2024/04/01 05:40:01;;;;;;;10.52;2.60;;;12.40;99.90;;;;;;4991308;28;20128;-77
2024/04/01 05:42:27;;;;;;;7.80;1.92;;;12.40;99.90;;;;;;4991964;28;20711;-78
2024/04/01 05:44:53;;;;;;;6.28;1.92;;;12.50;99.90;;;;;;4991196;28;20112;-77
2024/04/01 05:47:18;;;;;;;12.60;2.67;;;12.50;99.90;;;;;;4992159;28;20041;-78
2024/04/01 05:49:44;;;;;;;12.30;2.20;;;12.50;99.90;;;;;;4994782;28;20594;-77
2024/04/01 05:52:10;;;;;;;9.60;2.22;;;12.60;99.90;;;;;;4992884;28;20104;-78
2024/04/01 05:54:36;;;;;;;3.92;1.25;;;12.60;99.90;;;;;;4994911;28;20041;-76
2024/04/01 05:57:02;;;;;;;5.97;2.22;;;12.50;99.90;;;;;;4996519;28;20057;-77
2024/04/01 05:59:28;;;;;;;10.23;1.88;;;12.50;99.90;;;;;;4993318;28;20626;-76
2024/04/01 06:01:57;;;;;;;8.85;2.10;;;12.40;99.90;;;;;;4991209;28;20073;-76
2024/04/01 06:04:25;;;;;;;12.55;2.40;;;12.30;99.90;;;;;;4990309;28;20103;-76
2024/04/01 06:06:51;;;;;;;9.80;2.17;;;12.30;99.90;;;;;;4989960;28;20088;-76
2024/04/01 06:09:18;;;;;;;11.88;2.00;;;12.30;99.90;;;;;;4991206;28;20041;-76
2024/04/01 06:11:44;;;;;;;4.07;1.45;;;12.40;99.90;;;;;;4989653;28;20048;-75
2024/04/01 06:14:10;;;;;;;6.15;1.48;;;12.40;99.90;;;;;;4989591;28;20037;-75
2024/04/01 06:16:36;;;;;;;9.88;2.63;;;12.40;99.90;;;;;;4988123;28;20062;-76
2024/04/01 06:19:02;;;;;;;5.80;2.40;;;12.50;99.90;;;;;;4989656;28;20146;-75
2024/04/01 06:21:28;;;;;;;10.23;1.83;;;12.50;99.90;;;;;;4989301;28;20096;-76
2024/04/01 06:23:54;;;;;;;7.88;1.65;;;12.50;99.90;;;;;;4991320;28;20373;-76
2024/04/01 06:26:19;;;;;;;11.40;1.75;;;12.50;99.90;;;;;;4989497;28;20568;-76
2024/04/01 06:28:48;;;;;;;6.95;1.65;;;12.50;99.90;;;;;;4989597;28;20685;-76
2024/04/01 06:31:17;;;;;;;10.73;1.92;;;12.50;99.90;;;;;;4989292;28;20164;-76
2024/04/01 06:33:43;;;;;;;10.38;2.00;;;12.60;99.90;;;;;;4985343;28;20049;-76
2024/04/01 06:36:12;;;;;;;7.03;2.22;;;12.60;99.90;;;;;;4989771;28;20571;-76
2024/04/01 06:38:39;;;;;;;11.65;2.60;;;12.50;99.90;;;;;;4990509;28;20042;-77
2024/04/01 06:41:05;;;;;;;12.45;3.03;;;12.50;99.90;;;;;;4989430;28;20510;-76
2024/04/01 06:43:31;;;;;;;9.95;1.85;;;12.40;99.90;;;;;;4989085;28;20033;-77
2024/04/01 06:46:01;;;;;;;12.18;2.58;;;12.40;99.90;;;;;;4990136;28;20539;-76
2024/04/01 06:48:27;;;;;;;9.35;2.65;;;12.40;99.90;;;;;;4989698;28;20251;-76
2024/04/01 06:50:54;;;;;;;15.23;3.10;;;12.40;99.90;;;;;;4989626;28;20045;-76
2024/04/01 06:53:20;;;;;;;9.32;2.25;;;12.40;99.90;;;;;;4990420;28;20382;-76
2024/04/01 06:55:49;;;;;;;10.40;2.10;;;12.30;99.90;;;;;;4989377;28;20026;-77
2024/04/01 06:58:15;;;;;;;9.05;1.67;;;12.40;99.90;;;;;;4988072;28;20037;-77
2024/04/01 07:00:41;;;;;;;8.52;1.42;;;12.50;99.90;;;;;;4989540;28;20062;-77
2024/04/01 07:03:07;;;;;;;9.55;1.30;;;12.60;99.90;;;;;;4987839;28;20100;-77
2024/04/01 07:05:33;;;;;;;6.95;2.42;;;12.60;99.90;;;;;;4987821;28;20113;-79
2024/04/01 07:07:59;;;;;;;6.00;2.33;;;12.60;99.90;;;;;;4995302;28;20745;-79
2024/04/01 07:10:29;;;;;;;9.05;1.80;;;12.60;99.90;;;;;;4992014;28;20477;-78
2024/04/01 07:12:56;;;;;;;8.82;2.38;;;12.50;99.90;;;;;;4991535;28;20053;-79
2024/04/01 07:15:22;;;;;;;4.65;1.60;;;12.40;99.90;;;;;;4992518;28;20514;-79
2024/04/01 07:17:48;;;;;;;5.90;1.40;;;12.40;99.90;;;;;;4992133;28;20030;-78
2024/04/01 07:20:14;;;;;;;10.05;2.45;;;12.30;99.90;;;;;;4991900;28;20045;-79
2024/04/01 07:22:40;;;;;;;8.88;1.50;;;12.20;99.90;;;;;;4992140;28;20095;-78
2024/04/01 07:25:06;;;;;;;5.68;1.67;;;12.20;99.90;;;;;;4992027;28;20052;-79
2024/04/01 07:27:34;;;;;;;6.47;1.52;;;12.20;99.90;;;;;;4992166;28;20065;-79
2024/04/01 07:30:07;;;;;;;9.00;1.75;;;12.20;99.90;;;;;;4991353;28;20137;-78
2024/04/01 07:32:34;;;;;;;7.05;1.50;;;12.10;99.90;;;;;;4992832;28;20041;-78
2024/04/01 07:35:01;;;;;;;6.72;1.30;;;12.10;99.90;;;;;;4991912;28;20484;-80
2024/04/01 07:37:27;;;;;;;13.00;2.42;;;12.10;99.90;;;;;;4992849;28;20030;-79
2024/04/01 07:39:57;;;;;;;10.85;1.80;;;12.00;99.90;;;;;;4991192;28;20053;-79
2024/04/01 07:42:23;;;;;;;5.82;1.45;;;12.00;99.90;;;;;;4988138;28;20045;-81
2024/04/01 07:44:52;;;;;;;6.20;1.30;;;12.00;99.90;;;;;;4989715;28;20088;-79
2024/04/01 07:47:21;;;;;;;5.72;1.30;;;11.90;99.90;;;;;;4988517;28;20072;-79
2024/04/01 07:49:47;;;;;;;8.00;1.38;;;12.00;99.90;;;;;;4987841;28;20045;-79
2024/04/01 07:52:13;;;;;;;8.85;1.58;;;11.90;99.90;;;;;;4991041;28;20038;-77
2024/04/01 07:54:39;;;;;;;2.47;0.80;;;11.90;99.90;;;;;;4990612;28;20044;-80
2024/04/01 07:57:04;;;;;;;7.95;0.80;;;11.80;99.90;;;;;;4992284;28;20120;-79
2024/04/01 07:59:32;;;;;;;2.70;0.90;;;11.90;99.90;;;;;;4992653;28;20148;-80
2024/04/01 08:01:58;;;;;;;3.95;1.00;;;11.80;99.90;;;;;;4990366;28;20041;-79
2024/04/01 08:04:24;;;;;;;5.25;1.10;;;11.80;99.90;;;;;;4990480;28;20069;-80
2024/04/01 08:06:50;;;;;;;3.88;1.45;;;11.70;99.90;;;;;;4992721;28;20034;-79
2024/04/01 08:09:16;;;;;;;26.40;11.23;;;11.80;99.90;;;;;;4990602;28;20099;-80
2024/04/01 08:11:42;;;;;;;17.13;7.18;;;11.70;99.90;;;;;;4991224;28;20159;-81
2024/04/01 08:14:08;;;;;;;78.97;49.85;;;11.70;99.90;;;;;;4992278;28;20782;-80
2024/04/01 08:16:34;;;;;;;13.45;5.22;;;11.70;99.90;;;;;;4990997;28;20036;-80
2024/04/01 08:19:00;;;;;;;4.78;1.88;;;12.00;99.90;;;;;;4990398;28;20045;-78
2024/04/01 08:21:26;;;;;;;1.30;0.52;;;12.00;99.90;;;;;;4992860;28;20034;-79
2024/04/01 08:23:51;;;;;;;3.17;0.82;;;12.00;99.90;;;;;;4989704;28;20133;-80
2024/04/01 08:26:17;;;;;;;16.45;1.63;;;11.90;99.90;;;;;;4992026;28;20037;-79
2024/04/01 08:28:43;;;;;;;9.02;5.07;;;11.80;99.90;;;;;;4992576;28;20037;-79
2024/04/01 08:31:09;;;;;;;7.18;2.75;;;11.70;99.90;;;;;;4991558;28;20631;-79
2024/04/01 08:33:34;;;;;;;7.63;3.20;;;11.70;99.90;;;;;;4991563;28;20100;-80
2024/04/01 08:36:00;;;;;;;32.00;19.15;;;11.60;99.90;;;;;;4991552;28;20623;-78
2024/04/01 08:38:26;;;;;;;8.05;5.18;;;11.60;99.90;;;;;;4990759;28;20121;-80
2024/04/01 08:41:05;;;;;;;5.80;1.70;;;11.60;99.90;;;;;;4991588;28;20599;-79
2024/04/01 08:43:39;;;;;;;10.45;2.25;;;11.50;99.90;;;;;;4990421;28;20034;-79
2024/04/01 08:46:05;;;;;;;7.35;2.03;;;11.50;99.90;;;;;;4992271;28;20065;-80
2024/04/01 08:48:32;;;;;;;2.58;0.65;;;11.60;99.90;;;;;;4991712;28;20057;-80
2024/04/01 08:51:05;;;;;;;1.77;0.63;;;11.50;99.90;;;;;;4991062;28;20133;-81
2024/04/01 08:53:50;;;;;;;2.40;0.50;;;11.60;99.90;;;;;;4991585;28;20080;-80
2024/04/01 08:56:18;;;;;;;0.47;0.20;;;11.60;99.90;;;;;;4990862;28;20117;-80
2024/04/01 08:58:44;;;;;;;0.90;0.22;;;11.70;99.90;;;;;;4992249;28;20049;-81
2024/04/01 09:01:10;;;;;;;1.55;0.55;;;11.70;99.90;;;;;;4989951;28;20115;-78
2024/04/01 09:03:36;;;;;;;0.20;0.10;;;11.80;99.90;;;;;;4990177;28;20480;-78
2024/04/01 09:06:01;;;;;;;0.43;0.17;;;11.80;99.90;;;;;;4991239;28;20045;-80
2024/04/01 09:08:29;;;;;;;1.30;0.52;;;11.70;99.90;;;;;;4992955;28;20038;-79
2024/04/01 09:10:55;;;;;;;0.60;0.20;;;11.60;99.90;;;;;;4995018;28;20052;-79
2024/04/01 09:13:21;;;;;;;2.10;0.52;;;11.80;99.90;;;;;;4994176;28;20135;-78
2024/04/01 09:15:48;;;;;;;0.80;0.20;;;11.70;99.90;;;;;;4993023;28;21385;-78
2024/04/01 09:18:14;;;;;;;1.60;0.80;;;11.70;99.90;;;;;;4994128;28;20029;-78
2024/04/01 09:20:41;;;;;;;1.80;0.55;;;12.00;99.90;;;;;;4991959;28;21247;-78
2024/04/01 09:23:07;;;;;;;1.77;0.57;;;12.00;99.90;;;;;;4997764;28;20034;-78
2024/04/01 09:25:33;;;;;;;3.72;0.32;;;11.80;99.90;;;;;;4997888;28;20053;-78
2024/04/01 09:27:59;;;;;;;2.25;0.50;;;11.80;99.90;;;;;;4997632;28;20041;-79
2024/04/01 09:30:25;;;;;;;2.22;0.70;;;11.90;99.90;;;;;;4998261;28;20068;-77
2024/04/01 09:32:50;;;;;;;1.25;0.40;;;11.90;99.90;;;;;;4997452;28;20106;-79
2024/04/01 09:35:16;;;;;;;1.98;0.60;;;11.90;99.90;;;;;;4997328;28;20049;-79
2024/04/01 09:37:42;;;;;;;1.20;0.30;;;11.80;99.90;;;;;;4997579;28;20034;-79
2024/04/01 09:40:09;;;;;;;0.93;0.50;;;11.70;99.90;;;;;;4996776;28;20044;-78
2024/04/01 09:42:35;;;;;;;1.27;0.47;;;11.60;99.90;;;;;;4994848;28;20610;-78
2024/04/01 09:45:07;;;;;;;1.50;0.70;;;11.70;99.90;;;;;;4991819;28;20432;-78
2024/04/01 09:47:37;;;;;;;1.90;0.73;;;11.40;99.90;;;;;;4990948;28;20076;-79
2024/04/01 09:50:05;;;;;;;3.08;0.68;;;11.40;99.90;;;;;;4990797;28;20661;-79
2024/04/01 09:52:31;;;;;;;1.90;0.98;;;11.60;99.90;;;;;;4991644;28;20438;-79
2024/04/01 09:55:05;;;;;;;0.98;0.30;;;11.80;99.90;;;;;;4990591;28;20037;-79
2024/04/01 09:57:48;;;;;;;;;;;11.80;99.90;;;;;;4990744;28;20087;-79
2024/04/01 10:00:18;;;;;;;1.38;0.38;;;11.80;99.90;;;;;;4991028;28;19932;-79
2024/04/01 10:03:12;;;;;;;1.23;0.30;;;11.90;99.90;;;;;;4990760;28;20044;-78
2024/04/01 10:06:14;;;;;;;1.95;0.20;;;12.00;99.90;;;;;;4990600;28;20091;-78
2024/04/01 10:09:05;;;;;;;1.10;0.38;;;12.40;99.90;;;;;;4990696;28;20072;-79
2024/04/01 10:11:48;;;;;;;3.25;0.35;;;12.60;99.90;;;;;;4990168;28;20042;-78
2024/04/01 10:14:38;;;;;;;1.15;0.52;;;13.00;99.90;;;;;;4991147;28;20507;-78
2024/04/01 10:17:30;;;;;;;1.10;0.50;;;13.10;99.90;;;;;;4989609;28;20747;-79
2024/04/01 10:20:14;;;;;;;2.10;0.60;;;13.00;99.90;;;;;;4989291;28;20046;-80
2024/04/01 10:22:59;;;;;;;1.35;0.45;;;13.10;99.90;;;;;;4989149;28;20049;-78
2024/04/01 10:25:49;;;;;;;1.20;0.50;;;13.10;99.90;;;;;;4990190;28;20096;-79
2024/04/01 10:28:34;;;;;;;3.13;0.40;;;13.00;99.90;;;;;;4990034;28;20033;-79
2024/04/01 10:31:23;;;;;;;0.63;0.17;;;13.10;99.90;;;;;;4989339;28;20037;-78
2024/04/01 10:34:26;;;;;;;1.17;0.50;;;13.10;99.90;;;;;;4983548;28;20978;-78
2024/04/01 10:37:40;;;;;;;2.40;0.60;;;13.10;99.90;;;;;;4989024;28;20069;-81
2024/04/01 10:40:27;;;;;;;3.40;1.00;;;13.10;99.90;;;;;;4993641;28;20148;-79
2024/04/01 10:43:17;;;;;;;1.05;0.30;;;13.10;99.90;;;;;;4993399;28;20042;-78
2024/04/01 10:46:03;;;;;;;1.15;0.32;;;13.20;99.90;;;;;;4993292;28;20061;-77
2024/04/01 10:48:30;;;;;;;3.97;0.60;;;13.20;99.90;;;;;;4992577;28;20034;-78
2024/04/01 10:51:17;;;;;;;2.92;0.55;;;13.10;99.90;;;;;;4989072;28;20125;-78
2024/04/01 10:54:07;;;;;;;2.65;0.38;;;13.10;99.90;;;;;;4989360;28;20033;-78
2024/04/01 10:57:28;;;;;;;2.38;0.40;;;13.20;99.90;;;;;;4981821;28;20052;-78
2024/04/01 11:00:17;;;;;;;2.00;0.70;;;13.40;99.90;;;;;;4976984;28;20140;-79
2024/04/01 11:03:02;;;;;;;4.25;1.00;;;13.60;99.90;;;;;;4989740;28;20045;-78
2024/04/01 11:05:42;;;;;;;2.60;0.73;;;13.70;99.90;;;;;;4990789;28;20038;-78
2024/04/01 11:08:21;;;;;;;2.33;0.80;;;13.70;99.90;;;;;;4990752;28;20048;-78
2024/04/01 11:11:39;;;;;;;2.08;0.73;;;13.70;99.90;;;;;;4989930;28;20025;-78
2024/04/01 11:14:06;;;;;;;4.38;0.40;;;13.70;99.90;;;;;;4987611;28;20910;-78
2024/04/01 11:16:35;;;;;;;5.15;0.88;;;13.70;99.90;;;;;;4990276;28;20037;-78
2024/04/01 11:19:38;;;;;;;1.13;0.40;;;13.60;99.90;;;;;;4990520;28;20045;-77
2024/04/01 11:22:08;;;;;;;1.63;0.60;;;13.60;99.90;;;;;;4989561;28;20395;-77
2024/04/01 11:24:49;;;;;;;2.00;0.47;;;13.70;99.90;;;;;;4990494;28;20056;-78
2024/04/01 11:27:39;;;;;;;5.70;0.75;;;13.90;99.90;;;;;;4990377;28;20080;-78
2024/04/01 11:30:21;;;;;;;2.30;0.68;;;14.00;99.90;;;;;;4990155;28;20503;-78
2024/04/01 11:33:09;;;;;;;3.50;0.57;;;14.10;99.90;;;;;;4990825;28;20100;-78
2024/04/01 11:35:45;;;;;;;2.90;0.90;;;14.30;99.90;;;;;;4989756;28;20050;-77
2024/04/01 11:38:20;;;;;;;3.58;0.88;;;14.20;99.90;;;;;;4990101;28;20038;-77
2024/04/01 11:40:48;;;;;;;2.13;1.00;;;14.30;99.90;;;;;;4990501;28;20164;-77
2024/04/01 11:43:17;;;;;;;3.33;1.17;;;14.20;99.90;;;;;;4992441;28;20451;-77
2024/04/01 11:45:46;;;;;;;3.20;0.85;;;14.10;99.90;;;;;;4992781;28;20057;-77
2024/04/01 11:48:14;;;;;;;1.80;0.90;;;14.20;99.90;;;;;;4993228;28;20038;-78
2024/04/01 11:50:54;;;;;;;6.18;2.40;;;14.40;99.90;;;;;;4991748;28;20041;-78
2024/04/01 11:53:21;;;;;;;5.40;1.30;;;14.30;99.90;;;;;;4992455;28;20026;-78
2024/04/01 11:56:00;;;;;;;3.20;1.35;;;14.30;99.90;;;;;;4993106;28;20026;-78
2024/04/01 11:58:26;;;;;;;5.38;2.92;;;14.20;99.90;;;;;;4989877;28;20424;-76
2024/04/01 12:00:56;;;;;;;5.55;1.90;;;14.20;99.90;;;;;;4988020;28;20030;-76
2024/04/01 12:03:23;;;;;;;3.80;1.65;;;14.10;99.90;;;;;;4988632;28;20045;-79
2024/04/01 12:05:51;;;;;;;2.25;1.10;;;14.10;99.90;;;;;;4990353;28;20515;-79
2024/04/01 12:08:25;;;;;;;2.80;0.88;;;14.00;99.90;;;;;;4989581;28;20030;-77
2024/04/01 12:10:52;;;;;;;2.13;0.98;;;14.00;99.90;;;;;;4988704;28;20038;-77
2024/04/01 12:13:26;;;;;;;2.95;1.00;;;14.10;99.90;;;;;;4989548;28;20091;-76
2024/04/01 12:15:53;;;;;;;2.45;0.82;;;14.00;99.90;;;;;;4988825;28;20559;-75
2024/04/01 12:18:20;;;;;;;4.90;1.25;;;14.00;99.90;;;;;;4988896;28;20017;-76
2024/04/01 12:20:51;;;;;;;5.47;1.52;;;14.00;99.90;;;;;;4988896;28;20034;-76
2024/04/01 12:23:23;;;;;;;6.28;1.85;;;14.20;99.90;;;;;;4989505;28;21382;-78
2024/04/01 12:25:50;;;;;;;3.80;1.38;;;14.30;99.90;;;;;;4988959;28;20045;-79
2024/04/01 12:28:17;;;;;;;3.50;1.05;;;14.30;99.90;;;;;;4988564;28;20349;-79
2024/04/01 12:30:42;;;;;;;6.38;1.92;;;14.40;99.90;;;;;;4989483;28;20404;-78
2024/04/01 12:33:10;;;;;;;6.05;1.08;;;14.30;99.90;;;;;;4990239;28;20144;-78
2024/04/01 12:35:37;;;;;;;3.83;1.13;;;14.30;99.90;;;;;;4988449;28;20061;-79
2024/04/01 12:38:04;;;;;;;13.90;4.40;;;14.30;99.90;;;;;;4988931;28;20107;-78
2024/04/01 12:40:43;;;;;;;15.70;5.40;;;14.30;99.90;;;;;;4989300;28;20046;-79
2024/04/01 12:43:16;;;;;;;7.85;3.40;;;14.30;99.90;;;;;;4993735;28;20038;-78
2024/04/01 12:45:44;;;;;;;6.28;2.50;;;14.30;99.90;;;;;;4991962;28;20456;-79
2024/04/01 12:48:13;;;;;;;11.30;5.20;;;14.20;99.90;;;;;;4992046;28;20026;-78
2024/04/01 12:50:43;;;;;;;7.35;2.50;;;14.20;99.90;;;;;;4993481;28;20571;-78
2024/04/01 12:53:33;;;;;;;8.70;2.40;;;14.20;99.90;;;;;;4992904;28;20511;-78